Latest Weather Observations for Forbes

IDN60801

Issued at 6:32 pm EST Thursday 21 September 2017 (issued every 30 minutes, with the page automatically refreshed every 10 minutes)

About weather observations | Map of weather stations | Latest weather observations for NSW | Other Formats
Station Details ID: 065103 Name: FORBES AIRPORT AWS Lat: -33.36 Lon: 147.92 Height: 230.4 m
Data from the previous 72 hours. | See also: Recent months at Forbes
Date/Time
EST
Temp
°C
App
Temp
°C
Dew
Point
°C
Rel
Hum
%
Delta-T
°C
Wind Press
QNH
hPa
Press
MSL
hPa
Rain since
9am
mm
Dir  Spd
km/h
Gust
km/h
Spd
kts
Gust
kts
21/06:30pm 15.2 10.8 2.7 43 5.7 NNE 15 17 8 9 1013.7 1013.6 0.0
21/06:00pm 17.5 13.4 2.3 36 7.0 N 13 13 7 7 1013.5 1013.4 0.0
21/05:30pm 20.9 17.5 4.0 33 8.2 N 11 13 6 7 1013.2 1013.2 0.0
21/05:00pm 23.6 20.2 1.9 24 10.4 N 9 13 5 7 1013.2 1013.2 0.0
21/04:30pm 24.5 19.3 0.1 20 11.3 NNW 17 22 9 12 1013.0 1013.0 0.0
21/04:00pm 24.9 20.4 -0.3 19 11.7 NNW 13 17 7 9 1013.0 1013.0 0.0
21/03:30pm 25.1 21.4 -0.1 19 11.7 NNW 9 13 5 7 1013.0 1013.0 0.0
21/03:00pm 25.0 22.0 0.5 20 11.5 NW 6 15 3 8 1013.2 1013.2 0.0
21/02:30pm 24.5 20.5 0.8 21 11.2 NNW 11 19 6 10 1013.6 1013.5 0.0
21/02:00pm 23.9 20.0 0.9 22 10.8 NNW 11 17 6 9 1013.9 1013.8 0.0
21/01:30pm 23.8 19.9 1.4 23 10.6 NW 11 17 6 9 1014.4 1014.3 0.0
21/01:00pm 22.9 18.6 0.7 23 10.3 WNW 13 20 7 11 1015.0 1014.9 0.0
21/12:30pm 22.1 19.1 2.2 27 9.4 W 7 13 4 7 1015.5 1015.4 0.0
21/12:00pm 21.5 18.2 2.2 28 9.1 NNW 9 17 5 9 1016.1 1016.1 0.0
21/11:30am 20.4 17.0 1.8 29 8.6 WNW 9 15 5 8 1016.6 1016.6 0.0
21/11:00am 19.5 16.8 3.6 35 7.6 N 7 13 4 7 1017.0 1017.0 0.0
21/10:30am 18.0 15.2 5.2 43 6.3 NW 9 15 5 8 1017.7 1017.7 0.0
21/10:00am 16.5 14.1 5.2 47 5.4 NNW 7 11 4 6 1017.9 1017.8 0.0
21/09:30am 14.9 12.0 4.6 50 4.9 NNE 9 11 5 6 1017.9 1017.8 0.0
21/09:00am 13.0 10.5 4.9 58 3.8 ENE 7 11 4 6 1018.1 1018.0 0.0
21/08:30am 11.0 8.0 4.2 63 3.1 E 9 13 5 7 1018.3 1018.2 0.0
21/08:00am 9.1 6.3 5.3 77 1.7 E 9 13 5 7 1018.3 1018.2 0.0
21/07:30am 6.6 4.3 4.6 87 0.9 E 6 11 3 6 1018.4 1018.3 0.0
21/07:00am 3.6 2.2 3.3 98 0.1 CALM 0 0 0 0 1018.3 1018.2 0.0
21/06:30am 1.2 -0.7 0.8 97 0.2 CALM 0 0 0 0 1018.1 1018.0 0.0
21/06:00am 0.4 -1.7 -0.6 93 0.4 CALM 0 0 0 0 1017.5 1017.5 0.0
21/05:30am 0.4 -1.7 -0.9 91 0.5 CALM 0 0 0 0 1017.1 1017.1 0.0
21/05:00am 1.6 -0.2 0.9 95 0.3 CALM 0 0 0 0 1016.7 1016.7 0.0
21/04:30am 1.0 -1.0 -0.1 92 0.4 CALM 0 0 0 0 1016.6 1016.6 0.0
21/04:00am 1.5 -0.4 0.5 93 0.4 CALM 0 0 0 0 1016.6 1016.6 0.0
21/03:30am 1.7 -0.2 0.4 91 0.5 CALM 0 0 0 0 1016.8 1016.8 0.0
21/03:00am 2.0 0.1 0.7 91 0.5 CALM 0 0 0 0 1016.7 1016.7 0.0
21/02:30am 1.7 -0.3 -0.1 88 0.7 CALM 0 0 0 0 1017.0 1017.0 0.0
21/02:00am 2.3 0.4 0.8 90 0.6 CALM 0 0 0 0 1017.2 1017.2 0.0
21/01:30am 2.7 0.9 1.5 92 0.5 CALM 0 0 0 0 1017.5 1017.5 0.0
21/01:00am 2.3 0.3 -0.4 82 1.0 CALM 0 0 0 0 1017.7 1017.7 0.0
21/12:30am 4.1 1.0 1.5 83 1.0 NE 7 9 4 5 1017.6 1017.6 0.0
21/12:00am 5.0 3.4 2.5 84 1.0 CALM 0 0 0 0 1018.0 1017.9 0.0
 
Date/Time
EST
Temp
°C
App
Temp
°C
Dew
Point
°C
Rel
Hum
%
Delta-T
°C
Wind Press
QNH
hPa
Press
MSL
hPa
Rain since
9am
mm
Dir  Spd
km/h
Gust
km/h
Spd
kts
Gust
kts
20/11:30pm 3.5 1.7 1.4 86 0.8 CALM 0 0 0 0 1018.3 1018.2 0.0
20/11:00pm 4.3 1.4 1.3 81 1.2 ENE 6 7 3 4 1018.7 1018.6 0.0
20/10:30pm 4.9 3.3 2.3 83 1.1 CALM 0 0 0 0 1018.9 1018.8 0.0
20/10:00pm 4.3 2.5 1.3 81 1.2 CALM 0 0 0 0 1019.2 1019.1 0.0
20/09:30pm 5.4 3.7 1.9 78 1.4 CALM 0 0 0 0 1019.2 1019.1 0.0
20/09:00pm 6.7 5.2 2.8 76 1.6 CALM 0 0 0 0 1019.3 1019.2 0.0
20/08:30pm 6.3 4.6 2.0 74 1.8 CALM 0 0 0 0 1019.1 1019.0 0.0
20/08:00pm 7.1 5.4 2.0 70 2.1 CALM 0 0 0 0 1018.9 1018.8 0.0
20/07:30pm 9.1 7.6 3.1 66 2.6 CALM 0 0 0 0 1018.6 1018.5 0.0
20/07:00pm 10.3 8.7 2.7 59 3.3 CALM 0 0 0 0 1018.6 1018.5 0.0
20/06:30pm 12.7 11.4 3.9 55 4.0 CALM 0 0 0 0 1018.4 1018.3 0.0
20/06:00pm 14.2 12.8 3.7 49 4.8 CALM 0 0 0 0 1018.4 1018.3 0.0
20/05:30pm 17.4 16.0 3.7 40 6.5 CALM 0 0 0 0 1018.2 1018.1 0.0
20/05:00pm 18.7 17.0 2.1 33 7.6 CALM 0 0 0 0 1017.9 1017.8 0.0
20/04:30pm 18.7 16.7 2.5 34 7.5 W 2 13 1 7 1018.0 1017.9 0.0
20/04:00pm 18.0 15.2 1.9 34 7.3 S 6 13 3 7 1017.9 1017.8 0.0
20/03:30pm 18.7 15.4 2.5 34 7.5 W 9 11 5 6 1018.0 1017.9 0.0
20/03:00pm 18.0 14.2 1.5 33 7.5 WSW 11 17 6 9 1018.1 1018.0 0.0
20/02:30pm 17.9 14.6 2.2 35 7.2 WNW 9 19 5 10 1018.3 1018.2 0.0
20/02:00pm 17.5 14.2 2.3 36 7.0 WSW 9 20 5 11 1018.6 1018.5 0.0
20/01:30pm 17.5 13.9 3.0 38 6.7 SW 11 19 6 10 1019.1 1019.0 0.0
20/01:00pm 16.4 13.0 2.1 38 6.5 SW 9 17 5 9 1019.6 1019.5 0.0
20/12:30pm 15.8 12.0 1.9 39 6.2 SSW 11 19 6 10 1020.1 1020.1 0.0
20/12:00pm 16.0 12.4 2.8 41 6.0 SSW 11 17 6 9 1020.8 1020.8 0.0
20/11:30am 15.3 11.2 2.5 42 5.8 SSE 13 20 7 11 1021.2 1021.2 0.0
20/11:00am 14.7 11.1 2.9 45 5.3 SSW 11 19 6 10 1021.6 1021.6 0.0
20/10:30am 13.8 9.8 2.7 47 5.0 SE 13 17 7 9 1021.9 1021.9 0.0
20/10:00am 12.8 9.5 2.6 50 4.5 S 9 15 5 8 1022.5 1022.4 0.0
20/09:30am 11.5 8.2 2.5 54 3.9 SSE 9 15 5 8 1022.8 1022.7 0.0
20/09:00am 10.2 7.6 3.3 62 3.0 S 6 11 3 6 1023.0 1022.9 0.0
20/08:30am 8.8 7.0 1.5 60 3.0 CALM 0 0 0 0 1022.9 1022.8 0.0
20/08:00am 7.2 5.2 2.5 72 2.0 ENE 2 6 1 3 1022.6 1022.5 0.0
20/07:30am 4.4 2.8 2.3 86 0.9 CALM 0 0 0 0 1022.5 1022.4 0.0
20/07:00am 1.1 -0.8 0.4 95 0.3 CALM 0 0 0 0 1022.2 1022.2 0.0
20/06:30am -1.4 -3.7 -2.4 93 0.3 CALM 0 0 0 0 1022.0 1022.0 0.0
20/06:00am -1.5 -5.0 -2.5 93 0.3 ENE 6 9 3 5 1021.9 1021.9 0.0
20/05:30am -1.4 -3.8 -2.8 90 0.4 CALM 0 0 0 0 1021.8 1021.8 0.0
20/05:00am -0.7 -2.9 -1.7 93 0.3 CALM 0 0 0 0 1021.6 1021.6 0.0
20/04:30am -1.3 -3.7 -2.9 89 0.5 CALM 0 0 0 0 1021.3 1021.3 0.0
20/04:00am -0.4 -2.6 -1.7 91 0.4 CALM 0 0 0 0 1021.2 1021.2 0.0
20/03:30am -0.2 -2.4 -1.8 89 0.6 CALM 0 0 0 0 1021.2 1021.2 0.0
20/03:00am 0.2 -2.0 -1.2 90 0.5 CALM 0 0 0 0 1021.3 1021.3 0.0
20/02:30am 0.5 -1.6 -0.9 90 0.5 CALM 0 0 0 0 1021.5 1021.5 0.0
20/02:00am 0.0 -2.3 -2.1 86 0.7 CALM 0 0 0 0 1021.6 1021.6 0.0
20/01:30am 0.8 -1.4 -1.6 84 0.9 CALM 0 0 0 0 1021.9 1021.9 0.0
20/01:00am 1.8 -0.3 -0.6 84 0.9 CALM 0 0 0 0 1022.0 1022.0 0.0
20/12:30am 2.9 -0.2 0.3 83 1.0 S 6 7 3 4 1022.0 1022.0 0.0
20/12:00am 2.8 -0.3 0.2 83 1.0 SSW 6 7 3 4 1022.0 1022.0 0.0
 
Date/Time
EST
Temp
°C
App
Temp
°C
Dew
Point
°C
Rel
Hum
%
Delta-T
°C
Wind Press
QNH
hPa
Press
MSL
hPa
Rain since
9am
mm
Dir  Spd
km/h
Gust
km/h
Spd
kts
Gust
kts
19/11:30pm 3.4 0.1 -0.1 78 1.3 SSW 7 9 4 5 1022.0 1022.0 0.0
19/11:00pm 4.6 1.0 0.4 74 1.6 S 9 9 5 5 1022.0 1022.0 0.0
19/10:30pm 5.0 1.0 0.8 74 1.7 SSE 11 13 6 7 1022.0 1022.0 0.0
19/10:00pm 6.0 2.1 1.2 71 1.9 SSW 11 13 6 7 1022.1 1022.1 0.0
19/09:30pm 4.8 0.9 1.3 78 1.4 S 11 13 6 7 1021.8 1021.8 0.0
19/09:00pm 4.8 3.0 0.9 76 1.5 CALM 0 0 0 0 1021.7 1021.7 0.0
19/08:30pm 5.7 3.7 0.1 67 2.2 CALM 0 6 0 3 1021.2 1021.2 0.0
19/08:00pm 8.2 5.4 1.8 64 2.7 SSW 6 7 3 4 1021.1 1021.1 0.0
19/07:30pm 8.9 5.8 1.3 59 3.2 SSW 7 7 4 4 1020.9 1020.9 0.0
19/07:00pm 9.9 6.0 1.3 55 3.6 S 11 11 6 6 1020.7 1020.7 0.0
19/06:30pm 11.1 7.2 1.1 50 4.2 SSW 11 15 6 8 1020.5 1020.5 0.0
19/06:00pm 13.3 8.1 0.3 41 5.5 SSW 17 20 9 11 1020.2 1020.2 0.0
19/05:30pm 15.1 9.6 0.5 37 6.3 SW 19 30 10 16 1020.0 1020.0 0.0
19/05:00pm 16.1 10.6 0.3 34 6.8 SW 19 37 10 20 1019.7 1019.6 0.0
19/04:30pm 16.6 9.7 -0.1 32 7.2 SW 26 37 14 20 1019.3 1019.2 0.0
19/04:00pm 17.1 9.8 -0.1 31 7.5 SW 28 37 15 20 1019.0 1018.9 0.0
19/03:30pm 16.8 10.3 0.0 32 7.3 SW 24 37 13 20 1019.0 1018.9 0.0
19/03:00pm 17.5 11.1 1.1 33 7.3 SW 24 37 13 20 1019.0 1018.9 0.0
19/02:30pm 17.2 10.4 0.8 33 7.3 SW 26 33 14 18 1019.0 1018.9 0.0
19/02:00pm 16.9 10.2 1.4 35 6.9 WSW 26 37 14 20 1019.2 1019.1 0.0
19/01:30pm 16.8 11.0 2.4 38 6.6 WSW 22 32 12 17 1019.6 1019.5 0.0
19/01:00pm 16.1 8.6 1.4 37 6.5 WSW 30 43 16 23 1020.0 1020.0 0.0
19/12:30pm 16.7 11.0 2.7 39 6.4 WSW 22 37 12 20 1020.4 1020.4 0.0
19/12:00pm 15.1 8.2 2.3 42 5.7 SW 28 39 15 21 1020.6 1020.6 0.0
19/11:30am 14.7 7.8 2.3 43 5.6 SW 28 37 15 20 1020.9 1020.9 0.0
19/11:00am 14.9 8.0 2.8 44 5.5 SW 28 39 15 21 1021.1 1021.1 0.0
19/10:30am 14.0 7.2 3.2 48 4.9 WSW 28 41 15 22 1021.2 1021.2 0.0
19/10:00am 13.2 7.7 4.1 54 4.2 SW 22 32 12 17 1021.4 1021.4 0.0
19/09:30am 12.8 7.4 4.5 57 3.8 SW 22 33 12 18 1021.4 1021.4 0.0
19/09:00am 12.2 6.8 4.4 59 3.6 SW 22 33 12 18 1021.4 1021.4 0.0
19/08:30am 11.4 5.6 4.2 61 3.3 SW 24 30 13 16 1021.4 1021.4 0.0
19/08:00am 10.9 4.7 4.1 63 3.1 SW 26 35 14 19 1020.9 1020.9 0.0
19/07:30am 10.4 5.5 4.3 66 2.8 SW 19 28 10 15 1020.5 1020.5 0.0
19/07:00am 9.8 4.7 4.2 68 2.5 SW 20 32 11 17 1020.0 1020.0 0.0
19/06:30am 9.9 4.7 3.4 64 2.9 SW 20 30 11 16 1019.4 1019.3 0.0
19/06:00am 10.8 4.8 3.4 60 3.3 SW 24 32 13 17 1018.6 1018.5 0.0
19/05:30am 10.7 6.7 4.8 67 2.7 WSW 15 22 8 12 1017.7 1017.7 0.0
19/05:00am 10.8 8.5 5.6 70 2.4 WSW 7 9 4 5 1017.1 1017.1 0.0
19/04:30am 11.9 9.7 6.0 67 2.8 SW 7 9 4 5 1016.8 1016.8 0.0
19/04:00am 12.6 10.0 6.2 65 3.1 SSW 9 19 5 10 1016.3 1016.3 0.0
19/03:30am 13.3 9.9 5.9 61 3.5 SW 13 19 7 10 1016.4 1016.4 0.0
19/03:00am 13.6 9.6 6.5 62 3.4 SW 17 22 9 12 1016.1 1016.1 0.0
19/02:30am 14.1 8.3 6.2 59 3.8 SSW 26 33 14 18 1015.6 1015.5 0.0
19/02:00am 14.5 7.2 5.3 54 4.4 SSW 33 48 18 26 1015.2 1015.1 0.0
19/01:30am 15.5 8.7 0.5 36 6.5 WSW 26 46 14 25 1014.4 1014.3 0.0
19/01:23am 12.9 7.6 1.6 46 4.9 N 19 46 10 25 1014.4 1014.3 0.0
19/01:00am 13.1 7.6 1.8 46 4.9 NNE 20 22 11 12 1012.7 1012.7 0.0
19/12:30am 12.5 6.6 1.8 48 4.7 NNE 22 26 12 14 1013.2 1013.2 0.0
19/12:00am 11.9 6.4 1.8 50 4.4 NNE 20 24 11 13 1013.8 1013.7 0.0
 
Date/Time
EST
Temp
°C
App
Temp
°C
Dew
Point
°C
Rel
Hum
%
Delta-T
°C
Wind Press
QNH
hPa
Press
MSL
hPa
Rain since
9am
mm
Dir  Spd
km/h
Gust
km/h
Spd
kts
Gust
kts
18/11:30pm 10.3 5.4 1.9 56 3.6 NNE 17 22 9 12 1014.4 1014.3 0.0
18/11:00pm 9.4 4.4 1.6 58 3.3 NNE 17 20 9 11 1015.0 1014.9 0.0
18/10:30pm 8.8 3.8 1.2 59 3.1 NNE 17 19 9 10 1015.4 1015.3 0.0
18/10:00pm 9.7 5.8 0.9 54 3.6 NNE 11 15 6 8 1015.8 1015.7 0.0
18/09:30pm 9.8 5.8 0.7 53 3.8 NNE 11 15 6 8 1016.0 1015.9 0.0
18/09:00pm 10.7 5.5 0.4 49 4.3 NNE 17 20 9 11 1015.9 1015.8 0.0
18/08:30pm 10.8 5.2 0.2 48 4.4 NNE 19 20 10 11 1016.0 1015.9 0.0
18/08:00pm 10.2 4.9 -0.3 48 4.3 NNE 17 20 9 11 1016.0 1015.9 0.0
18/07:30pm 10.9 5.2 -0.5 45 4.6 NNE 19 20 10 11 1015.9 1015.8 0.0
18/07:00pm 12.6 6.9 -1.0 39 5.6 NNE 19 20 10 11 1015.8 1015.7 0.0

Other Formats:

Comma delimited format used in spreadsheet applications
http://www.bom.gov.au/fwo/IDN60801/IDN60801.94715.axf

JavaScript Object Notation format (JSON) in row-major order
http://www.bom.gov.au/fwo/IDN60801/IDN60801.94715.json